Time;durP1;ratioP1;P1;durP2;ratioP2;P2;SDS_P1;SDS_P2;PMS_P1;PMS_P2;Temp;Humidity;BMP_temperature;BMP_pressure;BME280_temperature;BME280_humidity;BME280_pressure;Samples;Min_cycle;Max_cycle;Signal;HPM_P1;HPM_P2
2022/12/15 00:39:11;;;;;;;2.40;2.20;;;-5.30;98.20;;;;;;5050170;28;20546;-72
2022/12/15 00:41:38;;;;;;;2.40;2.20;;;-5.30;98.20;;;;;;5053719;28;20493;-72
2022/12/15 00:44:05;;;;;;;2.40;2.20;;;-5.30;98.20;;;;;;5054028;28;20474;-72
2022/12/15 01:22:09;;;;;;;2.30;2.10;;;-5.60;98.20;;;;;;5053833;28;20458;-72
2022/12/15 01:24:37;;;;;;;2.50;2.30;;;-5.60;98.20;;;;;;5052039;28;20433;-73
2022/12/15 01:27:04;;;;;;;3.67;3.47;;;-5.60;98.20;;;;;;5047667;28;20486;-72
2022/12/15 01:29:31;;;;;;;2.40;2.20;;;-5.60;98.20;;;;;;5052992;28;20493;-73
2022/12/15 01:31:57;;;;;;;2.40;2.20;;;-5.60;98.20;;;;;;5052999;28;20961;-72
2022/12/15 01:34:24;;;;;;;2.43;2.23;;;-5.60;98.20;;;;;;5052094;28;20465;-74
2022/12/15 01:36:51;;;;;;;2.30;2.10;;;-5.60;98.20;;;;;;5051797;28;20453;-72
2022/12/15 01:39:18;;;;;;;2.40;2.20;;;-5.60;98.20;;;;;;5052653;28;20471;-73
2022/12/15 01:41:45;;;;;;;2.40;2.20;;;-5.60;98.20;;;;;;5052109;28;20452;-74
2022/12/15 01:44:20;;;;;;;2.40;2.20;;;-5.60;98.20;;;;;;5051457;28;20729;-73
2022/12/15 01:46:48;;;;;;;2.30;2.10;;;-5.60;98.20;;;;;;5051183;28;20485;-73
2022/12/15 01:49:20;;;;;;;2.30;2.10;;;-5.70;98.20;;;;;;5052444;28;20481;-72
2022/12/15 01:51:51;;;;;;;2.30;2.10;;;-5.70;98.20;;;;;;5051454;28;20484;-72
2022/12/15 01:54:23;;;;;;;2.30;2.10;;;-5.70;98.20;;;;;;5051416;28;20458;-73
2022/12/15 01:56:55;;;;;;;2.30;2.10;;;-5.70;98.20;;;;;;5049544;28;20482;-73
2022/12/15 01:59:26;;;;;;;2.37;2.17;;;-5.70;98.20;;;;;;5054070;28;20461;-73
2022/12/15 02:01:52;;;;;;;2.40;2.20;;;-5.70;98.20;;;;;;5050810;28;20456;-73
2022/12/15 02:04:21;;;;;;;2.33;2.13;;;-5.70;98.20;;;;;;5050581;28;20462;-74
2022/12/15 02:06:48;;;;;;;2.40;2.20;;;-5.70;98.20;;;;;;5049017;28;20448;-73
2022/12/15 02:09:16;;;;;;;2.60;2.40;;;-5.70;98.20;;;;;;5049956;28;20840;-73
2022/12/15 02:12:00;;;;;;;2.40;2.20;;;-5.70;98.20;;;;;;5054808;28;20485;-73
2022/12/15 02:14:39;;;;;;;2.40;2.20;;;-5.70;98.20;;;;;;5046999;28;20835;-73
2022/12/15 02:17:20;;;;;;;2.43;2.23;;;-5.70;98.20;;;;;;5049705;28;20454;-73
2022/12/15 02:20:27;;;;;;;2.40;2.20;;;-5.70;98.20;;;;;;5050338;28;20458;-73
2022/12/15 02:23:17;;;;;;;2.40;2.20;;;-5.70;98.20;;;;;;5031176;28;20489;-73
2022/12/15 02:26:06;;;;;;;2.30;2.10;;;-5.70;98.20;;;;;;5049386;28;20455;-73
2022/12/15 02:28:46;;;;;;;2.40;2.20;;;-5.70;98.20;;;;;;5050293;28;20493;-73
2022/12/15 02:34:11;;;;;;;2.40;2.20;;;-5.80;98.20;;;;;;5050280;28;20523;-73
2022/12/15 02:36:42;;;;;;;2.50;2.30;;;-5.80;98.20;;;;;;5049693;28;20536;-73
2022/12/15 02:39:12;;;;;;;2.43;2.23;;;-5.80;98.20;;;;;;5049322;28;20470;-73
2022/12/15 02:41:43;;;;;;;2.40;2.20;;;-5.80;98.20;;;;;;5046967;28;20996;-73
2022/12/15 02:44:13;;;;;;;2.40;2.20;;;-5.80;98.20;;;;;;5044883;28;20919;-73
2022/12/15 02:47:16;;;;;;;2.40;2.20;;;-5.80;98.20;;;;;;5042878;28;20478;-72
2022/12/15 02:49:59;;;;;;;2.30;2.10;;;-5.80;98.20;;;;;;5009808;28;20458;-74
2022/12/15 02:52:49;;;;;;;2.80;2.60;;;-5.80;98.20;;;;;;5049867;28;20821;-73
2022/12/15 02:55:21;;;;;;;2.50;2.30;;;-5.80;98.20;;;;;;5043776;28;20462;-73
2022/12/15 02:57:56;;;;;;;2.40;2.20;;;-5.80;98.20;;;;;;5052405;28;20473;-73
2022/12/15 03:00:23;;;;;;;2.30;2.10;;;-5.80;98.20;;;;;;5049238;28;20453;-73
2022/12/15 03:02:53;;;;;;;2.40;2.20;;;-5.80;98.20;;;;;;5050368;28;20557;-73
2022/12/15 03:05:21;;;;;;;2.40;2.20;;;-5.70;98.20;;;;;;5057394;28;20490;-73
2022/12/15 03:07:50;;;;;;;2.40;2.20;;;-5.70;98.20;;;;;;5054760;28;20482;-73
2022/12/15 03:10:18;;;;;;;2.47;2.27;;;-5.70;98.20;;;;;;5052172;28;20454;-73
2022/12/15 03:12:45;;;;;;;2.50;2.30;;;-5.70;98.20;;;;;;5051883;28;20482;-74
2022/12/15 03:15:12;;;;;;;2.40;2.20;;;-5.70;98.20;;;;;;5054675;28;20470;-73
2022/12/15 03:17:39;;;;;;;2.40;2.20;;;-5.70;98.20;;;;;;5052878;28;20458;-73
2022/12/15 03:20:08;;;;;;;2.40;2.20;;;-5.70;98.20;;;;;;5053361;28;20461;-73
2022/12/15 03:22:35;;;;;;;2.40;2.20;;;-5.70;98.20;;;;;;5052628;28;21010;-74
2022/12/15 03:25:02;;;;;;;7.53;6.80;;;-5.70;98.20;;;;;;5053285;28;20473;-73
2022/12/15 03:27:29;;;;;;;2.40;2.20;;;-5.80;98.20;;;;;;5053233;28;20999;-72
2022/12/15 03:29:56;;;;;;;2.40;2.20;;;-5.80;98.20;;;;;;5052989;28;21169;-73
2022/12/15 03:32:23;;;;;;;2.40;2.20;;;-5.80;98.20;;;;;;5050846;28;20866;-73
2022/12/15 03:34:50;;;;;;;2.40;2.20;;;-5.80;98.20;;;;;;5052209;28;20474;-73
2022/12/15 03:37:18;;;;;;;2.40;2.20;;;-5.80;98.20;;;;;;5050963;28;20461;-73
2022/12/15 03:39:45;;;;;;;2.47;2.27;;;-5.80;98.20;;;;;;5051154;28;20533;-73
2022/12/15 03:42:12;;;;;;;2.40;2.20;;;-5.80;98.20;;;;;;5052473;28;20896;-73
2022/12/15 03:44:38;;;;;;;2.30;2.10;;;-5.80;98.20;;;;;;5051899;28;20458;-73
2022/12/15 03:47:05;;;;;;;2.40;2.20;;;-5.80;98.20;;;;;;5051035;28;20482;-73
2022/12/15 03:49:32;;;;;;;2.30;2.10;;;-5.80;98.20;;;;;;5052864;28;20466;-73
2022/12/15 03:51:59;;;;;;;2.30;2.10;;;-5.80;98.20;;;;;;5064796;22;20474;-75
2022/12/15 03:54:27;;;;;;;2.30;2.10;;;-5.70;98.20;;;;;;5047464;28;20455;-73
2022/12/15 03:56:54;;;;;;;2.40;2.20;;;-5.70;98.20;;;;;;5050557;28;20840;-73
2022/12/15 03:59:20;;;;;;;2.40;2.20;;;-5.70;98.20;;;;;;5050369;28;20465;-76
2022/12/15 04:01:48;;;;;;;2.27;2.10;;;-5.70;98.20;;;;;;5051823;28;20950;-74
2022/12/15 04:04:15;;;;;;;2.50;2.30;;;-5.70;98.20;;;;;;5060657;28;20567;-75
2022/12/15 04:06:42;;;;;;;2.40;2.20;;;-5.70;98.20;;;;;;5053883;28;20461;-75
2022/12/15 04:09:08;;;;;;;2.50;2.30;;;-5.60;98.20;;;;;;5048993;28;20847;-75
2022/12/15 04:11:43;;;;;;;2.40;2.20;;;-5.60;98.20;;;;;;5065996;28;20822;-75
2022/12/15 04:14:10;;;;;;;2.30;2.10;;;-5.50;98.20;;;;;;5052209;28;20476;-75
2022/12/15 04:16:37;;;;;;;2.40;2.20;;;-5.50;98.20;;;;;;5064679;28;20842;-74
2022/12/15 04:21:48;;;;;;;2.40;2.20;;;-5.40;98.20;;;;;;5069046;28;20549;-74
2022/12/15 05:32:46;;;;;;;2.20;2.00;;;-4.80;98.20;;;;;;5043349;28;20460;-75
2022/12/15 05:35:13;;;;;;;2.20;2.00;;;-4.80;98.20;;;;;;5031786;28;20459;-74
2022/12/15 05:37:40;;;;;;;2.40;2.20;;;-4.80;98.20;;;;;;5048358;28;20474;-75
2022/12/15 05:40:08;;;;;;;2.17;2.00;;;-4.70;98.20;;;;;;5059042;28;20476;-74
2022/12/15 05:42:35;;;;;;;2.40;2.20;;;-4.80;98.20;;;;;;5060010;28;20613;-74
2022/12/15 05:45:01;;;;;;;2.17;2.00;;;-4.70;98.20;;;;;;5055597;28;20466;-75
2022/12/15 05:47:28;;;;;;;2.30;2.10;;;-4.70;98.20;;;;;;5059980;28;21239;-74
2022/12/15 05:49:56;;;;;;;2.30;2.10;;;-4.70;98.20;;;;;;5059690;28;20458;-75
2022/12/15 05:52:23;;;;;;;2.30;2.10;;;-4.70;98.20;;;;;;5054586;28;20490;-75
2022/12/15 05:54:50;;;;;;;2.30;2.10;;;-4.70;98.20;;;;;;5057243;28;20492;-75
2022/12/15 05:57:17;;;;;;;22.43;11.87;;;-4.70;98.20;;;;;;5057650;28;20827;-74
2022/12/15 05:59:43;;;;;;;2.30;2.10;;;-4.80;98.20;;;;;;5057118;28;20973;-74
2022/12/15 06:02:10;;;;;;;5.77;5.40;;;-4.70;98.20;;;;;;5058000;28;20477;-75
2022/12/15 06:04:37;;;;;;;2.30;2.10;;;-4.70;98.20;;;;;;5056178;28;20807;-74
2022/12/15 06:07:05;;;;;;;2.20;2.00;;;-4.80;98.20;;;;;;5059924;28;20760;-74
2022/12/15 06:09:32;;;;;;;2.20;2.00;;;-4.80;98.20;;;;;;5058960;28;20465;-74
2022/12/15 06:11:58;;;;;;;2.20;2.00;;;-4.80;98.20;;;;;;5072776;28;20468;-74
2022/12/15 06:14:25;;;;;;;2.23;2.10;;;-4.80;98.20;;;;;;5056311;28;20496;-74
2022/12/15 06:16:52;;;;;;;2.37;2.17;;;-4.80;98.20;;;;;;5053576;28;20523;-73
2022/12/15 06:19:19;;;;;;;2.30;2.10;;;-4.80;98.20;;;;;;5056170;28;20524;-75
2022/12/15 06:21:46;;;;;;;2.40;2.20;;;-4.80;98.20;;;;;;5058614;28;20531;-77
2022/12/15 06:24:15;;;;;;;2.30;2.10;;;-4.90;98.20;;;;;;5053767;28;20468;-75
2022/12/15 06:26:41;;;;;;;2.40;2.20;;;-4.90;98.20;;;;;;5050176;28;20552;-76
2022/12/15 06:29:11;;;;;;;2.30;2.10;;;-4.90;98.20;;;;;;5049774;28;20480;-76
2022/12/15 06:31:38;;;;;;;2.40;2.20;;;-4.90;98.20;;;;;;5059428;28;20465;-75
2022/12/15 06:34:06;;;;;;;2.30;2.10;;;-4.90;98.20;;;;;;5057529;28;20583;-76
2022/12/15 06:36:33;;;;;;;2.30;2.10;;;-4.90;98.20;;;;;;5057801;28;20845;-76
2022/12/15 06:39:02;;;;;;;2.23;2.10;;;-4.90;98.20;;;;;;5060088;28;20956;-75
2022/12/15 06:41:30;;;;;;;2.47;2.27;;;-4.90;98.20;;;;;;5059814;28;20852;-74
2022/12/15 06:43:58;;;;;;;2.30;2.10;;;-4.90;98.20;;;;;;5070988;28;20485;-74
2022/12/15 06:46:27;;;;;;;2.30;2.10;;;-4.90;98.20;;;;;;5063300;28;20511;-74
2022/12/15 06:48:54;;;;;;;2.23;2.03;;;-4.90;98.20;;;;;;5058198;28;20516;-74
2022/12/15 06:51:21;;;;;;;2.30;2.10;;;-4.90;98.20;;;;;;5056315;28;20466;-74
2022/12/15 06:53:49;;;;;;;2.10;2.00;;;-4.90;98.20;;;;;;5053653;28;20540;-74
2022/12/15 06:56:19;;;;;;;2.10;2.00;;;-4.90;98.20;;;;;;5059085;28;20951;-74
2022/12/15 06:58:48;;;;;;;2.10;2.00;;;-4.90;98.20;;;;;;5061905;28;20461;-74
2022/12/15 07:01:16;;;;;;;2.30;2.10;;;-5.00;98.20;;;;;;5056270;28;20845;-74
2022/12/15 07:03:43;;;;;;;2.17;2.00;;;-5.00;98.20;;;;;;5056196;28;20460;-74
2022/12/15 07:06:14;;;;;;;2.30;2.10;;;-5.00;98.20;;;;;;5053249;28;20469;-73
2022/12/15 07:08:41;;;;;;;2.30;2.10;;;-5.00;98.20;;;;;;5050806;28;20861;-74
2022/12/15 07:11:10;;;;;;;2.20;2.00;;;-5.00;98.20;;;;;;5057027;28;20468;-73
2022/12/15 07:13:37;;;;;;;2.30;2.10;;;-5.10;98.20;;;;;;5056892;28;21218;-72
2022/12/15 07:16:07;;;;;;;2.50;2.30;;;-5.10;98.20;;;;;;5055005;28;20815;-75
2022/12/15 07:18:34;;;;;;;2.20;2.00;;;-5.00;98.20;;;;;;5056486;28;20954;-73
2022/12/15 07:21:03;;;;;;;2.30;2.10;;;-5.00;98.20;;;;;;5058855;28;20462;-74
2022/12/15 07:23:30;;;;;;;2.30;2.10;;;-5.00;98.20;;;;;;5058302;28;20457;-73
2022/12/15 07:25:57;;;;;;;2.30;2.10;;;-5.00;98.20;;;;;;5059921;28;20546;-73
2022/12/15 07:28:27;;;;;;;2.30;2.10;;;-5.00;98.20;;;;;;5057661;28;20486;-74
2022/12/15 07:30:53;;;;;;;2.30;2.10;;;-5.00;98.20;;;;;;5056428;28;20458;-73
2022/12/15 07:33:22;;;;;;;2.30;2.10;;;-5.00;98.20;;;;;;5056625;28;20488;-73
2022/12/15 07:35:55;;;;;;;2.30;2.10;;;-5.00;98.20;;;;;;5056656;28;20462;-73
2022/12/15 07:38:24;;;;;;;2.30;2.10;;;-5.00;98.20;;;;;;5053597;28;20461;-74
2022/12/15 07:40:50;;;;;;;2.30;2.10;;;-5.00;98.20;;;;;;5054849;28;20443;-75
2022/12/15 07:43:17;;;;;;;2.50;2.30;;;-5.00;98.20;;;;;;5055276;28;20501;-74
2022/12/15 07:45:44;;;;;;;2.17;2.00;;;-4.90;98.20;;;;;;5055736;28;20533;-75
2022/12/15 07:48:13;;;;;;;2.30;2.10;;;-4.90;98.20;;;;;;5054811;28;20572;-73
2022/12/15 07:50:41;;;;;;;2.27;2.13;;;-4.90;98.20;;;;;;5055009;28;20629;-74
2022/12/15 07:53:08;;;;;;;2.27;2.07;;;-4.80;98.20;;;;;;5054514;28;20520;-74
2022/12/15 07:55:35;;;;;;;2.30;2.10;;;-4.80;98.20;;;;;;5053926;28;21286;-74
2022/12/15 07:58:02;;;;;;;2.17;2.00;;;-4.70;98.20;;;;;;5056865;28;21009;-74
2022/12/15 08:00:29;;;;;;;6.50;6.00;;;-4.70;98.20;;;;;;5058899;28;20458;-72
2022/12/15 08:02:55;;;;;;;2.30;2.10;;;-4.60;98.20;;;;;;5056867;28;20811;-74
2022/12/15 08:05:22;;;;;;;2.20;2.00;;;-4.50;98.20;;;;;;5061984;28;20458;-74
2022/12/15 08:07:50;;;;;;;2.20;2.00;;;-4.50;98.20;;;;;;5056529;28;20470;-74
2022/12/15 08:10:17;;;;;;;2.10;2.00;;;-4.40;98.20;;;;;;5059507;28;20484;-74
2022/12/15 08:13:00;;;;;;;2.10;2.00;;;-4.30;98.20;;;;;;5059980;28;20482;-74
2022/12/15 08:15:27;;;;;;;2.20;2.00;;;-4.20;98.20;;;;;;5058252;28;20470;-73
2022/12/15 08:17:54;;;;;;;2.10;2.00;;;-4.20;98.20;;;;;;5057930;28;21050;-73
2022/12/15 08:20:22;;;;;;;2.00;1.90;;;-4.10;98.20;;;;;;5060061;28;20897;-73
2022/12/15 08:22:51;;;;;;;2.10;1.90;;;-4.10;98.20;;;;;;5061387;28;20668;-73
2022/12/15 08:25:19;;;;;;;2.30;2.10;;;-4.00;98.20;;;;;;5062757;28;21680;-74
2022/12/15 08:27:46;;;;;;;2.13;2.00;;;-4.00;98.20;;;;;;5062033;28;20506;-74
2022/12/15 08:30:14;;;;;;;3.03;2.83;;;-4.00;98.20;;;;;;5060689;28;20998;-73
2022/12/15 08:32:42;;;;;;;2.00;1.90;;;-3.90;98.20;;;;;;5061037;28;21054;-73
2022/12/15 08:35:10;;;;;;;2.10;1.90;;;-3.90;98.20;;;;;;5057634;28;20897;-73
2022/12/15 08:37:40;;;;;;;2.00;1.90;;;-3.80;98.20;;;;;;5058775;28;21012;-74
2022/12/15 08:40:10;;;;;;;2.13;2.03;;;-3.80;98.20;;;;;;5065696;28;20465;-74
2022/12/15 08:42:38;;;;;;;2.00;1.90;;;-3.70;98.20;;;;;;5061183;28;20482;-73
2022/12/15 08:45:06;;;;;;;2.00;1.90;;;-3.70;98.20;;;;;;5060190;28;20470;-73
2022/12/15 08:47:34;;;;;;;2.47;2.27;;;-3.70;98.20;;;;;;5061699;28;20500;-74
2022/12/15 08:50:01;;;;;;;2.00;1.90;;;-3.60;98.20;;;;;;5065720;28;20572;-74
2022/12/15 08:52:28;;;;;;;2.03;1.90;;;-3.60;98.20;;;;;;5067006;28;21034;-74
2022/12/15 08:54:56;;;;;;;2.00;1.90;;;-3.60;98.20;;;;;;5064220;28;20476;-73
2022/12/15 08:57:25;;;;;;;2.00;1.90;;;-3.60;98.20;;;;;;5062311;28;20462;-73
2022/12/15 08:59:53;;;;;;;2.20;2.00;;;-3.60;98.20;;;;;;5064647;28;20458;-73
2022/12/15 09:02:20;;;;;;;5.50;5.20;;;-3.50;98.20;;;;;;5065347;28;20509;-74
2022/12/15 09:04:49;;;;;;;1.90;1.80;;;-3.40;98.20;;;;;;5063796;28;20473;-73
2022/12/15 09:07:17;;;;;;;2.07;1.93;;;-3.40;98.20;;;;;;5063364;28;20751;-73
2022/12/15 09:09:44;;;;;;;2.20;2.00;;;-3.30;98.20;;;;;;5069497;28;20511;-72
2022/12/15 09:12:12;;;;;;;2.10;1.90;;;-3.30;98.20;;;;;;5060512;28;20985;-73
2022/12/15 09:14:41;;;;;;;1.93;1.83;;;-3.30;98.20;;;;;;5064551;28;20473;-74
2022/12/15 09:17:09;;;;;;;2.60;2.43;;;-3.30;98.20;;;;;;5063601;28;20484;-73
2022/12/15 09:19:36;;;;;;;1.90;1.80;;;-3.20;98.20;;;;;;5062590;28;20488;-73
2022/12/15 09:22:06;;;;;;;2.00;1.90;;;-3.20;98.20;;;;;;5061084;28;20580;-73
2022/12/15 09:24:33;;;;;;;1.90;1.80;;;-3.10;98.20;;;;;;5063382;28;20482;-73
2022/12/15 09:27:01;;;;;;;2.10;1.90;;;-3.00;98.20;;;;;;5061158;28;20458;-73
2022/12/15 09:29:29;;;;;;;1.90;1.80;;;-3.00;98.20;;;;;;5060982;28;20517;-72
2022/12/15 09:31:58;;;;;;;1.90;1.80;;;-3.00;98.20;;;;;;5060183;28;20499;-73
2022/12/15 09:34:27;;;;;;;1.90;1.80;;;-3.00;98.20;;;;;;5065666;28;20958;-73
2022/12/15 09:36:55;;;;;;;2.00;1.90;;;-3.00;98.20;;;;;;5063928;28;20475;-73
2022/12/15 09:39:31;;;;;;;1.90;1.80;;;-3.00;98.20;;;;;;5063590;28;20454;-72
2022/12/15 09:42:00;;;;;;;1.90;1.80;;;-3.00;98.20;;;;;;5073303;28;20475;-74
2022/12/15 09:44:30;;;;;;;1.97;1.87;;;-2.90;98.20;;;;;;5062893;28;21206;-74
2022/12/15 09:47:16;;;;;;;1.90;1.80;;;-2.90;98.20;;;;;;5061114;28;20515;-74
2022/12/15 09:49:54;;;;;;;1.90;1.80;;;-3.00;98.20;;;;;;5060735;28;20540;-75
2022/12/15 09:52:25;;;;;;;1.90;1.80;;;-3.00;98.20;;;;;;5062895;28;20531;-74
2022/12/15 09:54:53;;;;;;;4.23;3.93;;;-2.90;98.20;;;;;;5058436;28;20557;-73
2022/12/15 09:57:37;;;;;;;1.90;1.80;;;-2.90;98.20;;;;;;5057490;28;20497;-75
2022/12/15 10:00:20;;;;;;;2.23;2.03;;;-2.90;98.20;;;;;;5061433;28;20636;-75
2022/12/15 10:03:21;;;;;;;1.90;1.80;;;-2.90;98.20;;;;;;5061606;28;20485;-75
2022/12/15 10:06:12;;;;;;;1.93;1.80;;;-2.90;98.20;;;;;;5064534;28;20461;-75
2022/12/15 10:08:44;;;;;;;1.90;1.80;;;-2.90;98.20;;;;;;5064318;28;20481;-78
2022/12/15 10:11:21;;;;;;;3.13;2.93;;;-2.90;98.20;;;;;;5061189;28;20458;-76
2022/12/15 10:13:54;;;;;;;2.00;1.80;;;-2.80;98.20;;;;;;5060152;28;20491;-74
2022/12/15 10:16:28;;;;;;;1.90;1.80;;;-2.80;98.20;;;;;;5062395;28;20501;-74
2022/12/15 10:19:07;;;;;;;2.37;2.20;;;-2.80;98.20;;;;;;5066499;28;20980;-73
2022/12/15 10:21:38;;;;;;;5.10;4.70;;;-2.70;98.20;;;;;;5067343;28;20456;-75
2022/12/15 10:24:18;;;;;;;2.00;1.90;;;-2.70;98.20;;;;;;5063319;28;20462;-72
2022/12/15 10:26:57;;;;;;;2.00;1.90;;;-2.70;98.20;;;;;;5059336;28;20745;-74
2022/12/15 10:29:34;;;;;;;2.00;1.90;;;-2.70;98.20;;;;;;5059000;28;21002;-73
2022/12/15 10:32:06;;;;;;;2.10;1.90;;;-2.70;98.20;;;;;;5056948;28;20489;-74
2022/12/15 10:34:38;;;;;;;2.10;1.97;;;-2.70;98.20;;;;;;5060207;28;20473;-73
2022/12/15 10:37:05;;;;;;;2.00;1.90;;;-2.70;98.20;;;;;;5057800;28;20615;-72
2022/12/15 10:39:42;;;;;;;1.90;1.80;;;-2.70;98.20;;;;;;5059334;28;20458;-74
2022/12/15 10:42:15;;;;;;;1.90;1.80;;;-2.70;98.20;;;;;;5058802;28;20870;-72
2022/12/15 10:44:46;;;;;;;2.03;1.90;;;-2.60;98.20;;;;;;5060402;28;20468;-72
2022/12/15 10:47:20;;;;;;;2.00;1.90;;;-2.60;98.20;;;;;;5060832;28;20469;-74
2022/12/15 10:49:50;;;;;;;1.90;1.80;;;-2.50;98.20;;;;;;5059924;28;20492;-73
2022/12/15 10:52:23;;;;;;;2.53;2.33;;;-2.40;98.20;;;;;;5059200;28;20497;-74
2022/12/15 10:54:53;;;;;;;1.90;1.80;;;-2.30;98.20;;;;;;5058324;28;21010;-73
2022/12/15 10:57:26;;;;;;;1.90;1.80;;;-2.30;98.20;;;;;;5059346;28;20473;-73
2022/12/15 10:59:55;;;;;;;1.90;1.80;;;-2.40;98.20;;;;;;5057835;28;20458;-72
2022/12/15 11:02:33;;;;;;;2.00;1.80;;;-2.40;98.20;;;;;;5054340;28;21339;-72
2022/12/15 11:05:03;;;;;;;1.90;1.80;;;-2.40;98.20;;;;;;5054332;28;20836;-73
2022/12/15 11:07:37;;;;;;;4.53;4.23;;;-2.30;98.20;;;;;;5049302;28;20923;-73
2022/12/15 11:10:17;;;;;;;9.67;8.93;;;-2.30;98.20;;;;;;5052986;28;20753;-73
2022/12/15 11:12:53;;;;;;;1.90;1.80;;;-2.30;98.20;;;;;;5052376;28;20480;-73
2022/12/15 11:15:44;;;;;;;2.30;2.10;;;-2.40;98.20;;;;;;5051720;28;20465;-73
2022/12/15 11:18:27;;;;;;;1.90;1.80;;;-2.30;98.20;;;;;;5053771;28;20527;-73
2022/12/15 11:21:02;;;;;;;1.90;1.80;;;-2.30;98.20;;;;;;5057603;28;20469;-74
2022/12/15 11:23:41;;;;;;;3.30;3.10;;;-2.30;98.20;;;;;;5055417;28;20964;-74
2022/12/15 11:26:21;;;;;;;1.93;1.80;;;-2.30;98.20;;;;;;5056936;28;20493;-74
2022/12/15 11:28:56;;;;;;;1.90;1.80;;;-2.20;98.20;;;;;;5055827;28;20492;-74
2022/12/15 11:31:31;;;;;;;1.93;1.80;;;-2.20;98.20;;;;;;5053072;28;20458;-74
2022/12/15 11:33:58;;;;;;;1.90;1.80;;;-2.20;98.20;;;;;;5058340;28;20984;-74
2022/12/15 11:36:42;;;;;;;1.80;1.70;;;-2.10;98.20;;;;;;5053857;28;20496;-75
2022/12/15 11:39:19;;;;;;;1.80;1.70;;;-2.10;98.20;;;;;;5057223;28;20474;-73
2022/12/15 11:41:57;;;;;;;1.90;1.80;;;-2.10;98.20;;;;;;5055050;28;20470;-75
2022/12/15 11:44:27;;;;;;;1.80;1.70;;;-2.10;98.20;;;;;;5055105;28;20508;-74
2022/12/15 11:47:10;;;;;;;2.50;2.30;;;-2.10;98.20;;;;;;5055936;28;20465;-74
2022/12/15 11:50:06;;;;;;;1.90;1.80;;;-2.10;98.20;;;;;;5055236;28;20817;-75
2022/12/15 11:53:04;;;;;;;2.20;2.00;;;-2.10;98.20;;;;;;5051782;28;20493;-73
2022/12/15 11:55:40;;;;;;;1.90;1.80;;;-2.10;98.20;;;;;;5017109;28;20482;-74
2022/12/15 11:58:27;;;;;;;2.37;2.20;;;-2.00;98.20;;;;;;5055068;28;20472;-74
2022/12/15 12:01:02;;;;;;;1.90;1.80;;;-2.00;98.20;;;;;;5056010;28;20466;-73
2022/12/15 12:03:37;;;;;;;1.80;1.70;;;-2.00;98.20;;;;;;5055564;28;20520;-73
2022/12/15 12:06:12;;;;;;;4.73;4.53;;;-2.00;98.20;;;;;;5055359;28;20548;-74
2022/12/15 12:09:09;;;;;;;1.80;1.70;;;-2.00;98.20;;;;;;5053890;28;20950;-73
2022/12/15 12:11:42;;;;;;;1.90;1.80;;;-2.00;98.20;;;;;;5052929;28;20779;-74
2022/12/15 12:14:20;;;;;;;1.80;1.70;;;-2.00;98.20;;;;;;5053338;28;20473;-75
2022/12/15 12:16:57;;;;;;;1.90;1.80;;;-2.00;98.20;;;;;;5050736;28;20958;-73
2022/12/15 12:19:27;;;;;;;2.27;2.07;;;-1.90;98.20;;;;;;5049869;28;20566;-74
2022/12/15 12:22:00;;;;;;;1.83;1.73;;;-1.90;98.20;;;;;;5051296;28;20477;-73
2022/12/15 12:24:32;;;;;;;1.90;1.80;;;-1.80;98.20;;;;;;5052852;28;20465;-73
2022/12/15 12:27:02;;;;;;;1.90;1.80;;;-1.70;98.20;;;;;;5053807;28;20486;-74
2022/12/15 12:29:34;;;;;;;1.83;1.73;;;-1.70;98.20;;;;;;5051478;28;20478;-75
2022/12/15 12:32:07;;;;;;;3.43;3.23;;;-1.70;98.20;;;;;;5053704;28;20577;-75
2022/12/15 12:34:47;;;;;;;1.90;1.80;;;-1.70;98.20;;;;;;5051570;28;20976;-73
2022/12/15 12:37:24;;;;;;;1.90;1.80;;;-1.70;98.20;;;;;;5053483;28;20866;-73
2022/12/15 12:39:56;;;;;;;1.87;1.77;;;-1.70;98.20;;;;;;5054499;28;20454;-74
2022/12/15 12:42:30;;;;;;;1.93;1.83;;;-1.70;98.20;;;;;;5055197;28;20496;-73
2022/12/15 12:44:57;;;;;;;1.90;1.80;;;-1.60;98.20;;;;;;5056942;28;20457;-73
2022/12/15 12:47:29;;;;;;;1.80;1.70;;;-1.60;98.20;;;;;;5050754;28;20922;-73
2022/12/15 12:50:01;;;;;;;1.90;1.80;;;-1.50;98.20;;;;;;5051177;28;20508;-72
2022/12/15 12:52:31;;;;;;;1.83;1.73;;;-1.50;98.20;;;;;;5051769;28;20492;-72
2022/12/15 12:55:01;;;;;;;1.80;1.70;;;-1.40;98.20;;;;;;5052200;28;20470;-72
2022/12/15 12:57:40;;;;;;;1.90;1.80;;;-1.20;98.20;;;;;;5054732;28;20479;-75
2022/12/15 13:00:21;;;;;;;1.80;1.70;;;-1.10;98.20;;;;;;5056839;28;20980;-72
2022/12/15 13:03:09;;;;;;;1.80;1.70;;;-0.90;98.20;;;;;;5051973;28;21009;-74
2022/12/15 13:05:38;;;;;;;3.30;3.10;;;-0.90;98.20;;;;;;5054969;28;20500;-72
2022/12/15 13:08:44;;;;;;;1.90;1.80;;;-0.90;98.20;;;;;;5050609;28;20907;-73
2022/12/15 13:11:45;;;;;;;1.90;1.70;;;-0.80;98.20;;;;;;5054304;28;20538;-74
2022/12/15 13:14:18;;;;;;;1.80;1.70;;;-0.70;98.20;;;;;;5051280;28;20584;-74
2022/12/15 13:16:46;;;;;;;1.90;1.80;;;-0.60;98.20;;;;;;5050361;28;20469;-74
2022/12/15 13:19:14;;;;;;;1.93;1.77;;;-0.60;98.20;;;;;;5051275;28;21037;-74
2022/12/15 13:21:55;;;;;;;1.80;1.70;;;-0.70;98.20;;;;;;5051878;28;20477;-74
2022/12/15 13:24:33;;;;;;;1.80;1.70;;;-0.60;98.20;;;;;;5051988;28;20939;-73
2022/12/15 13:27:14;;;;;;;1.70;1.60;;;-0.60;98.20;;;;;;5049988;28;20474;-74
2022/12/15 13:29:59;;;;;;;3.67;3.37;;;-0.60;98.20;;;;;;5058548;28;20486;-73
2022/12/15 13:32:31;;;;;;;2.20;2.00;;;-0.70;98.20;;;;;;5052173;28;20514;-73
2022/12/15 13:35:15;;;;;;;2.03;1.83;;;-0.80;98.20;;;;;;5051627;28;20457;-73
2022/12/15 13:37:47;;;;;;;1.80;1.70;;;-0.90;98.20;;;;;;5048853;28;20465;-73
2022/12/15 13:40:49;;;;;;;1.87;1.77;;;-1.10;98.20;;;;;;5049632;28;20458;-75
2022/12/15 13:43:41;;;;;;;1.93;1.83;;;-1.20;98.20;;;;;;5052838;28;20538;-72
2022/12/15 13:46:20;;;;;;;4.17;3.87;;;-1.30;98.20;;;;;;5053227;28;20503;-74
2022/12/15 13:48:51;;;;;;;2.37;2.17;;;-1.30;98.20;;;;;;5054153;28;20935;-73
2022/12/15 13:51:25;;;;;;;1.90;1.80;;;-1.40;98.20;;;;;;5047406;28;20565;-72
2022/12/15 13:53:58;;;;;;;2.67;2.47;;;-1.50;98.20;;;;;;5050663;28;20505;-72
2022/12/15 13:56:39;;;;;;;1.77;1.67;;;-1.50;98.20;;;;;;5051363;28;20489;-74
2022/12/15 13:59:20;;;;;;;1.90;1.80;;;-1.60;98.20;;;;;;5055684;28;20628;-74
2022/12/15 14:01:53;;;;;;;2.17;1.97;;;-1.60;98.20;;;;;;5055107;28;20455;-72
2022/12/15 14:04:21;;;;;;;1.80;1.70;;;-1.60;98.20;;;;;;5053881;28;20464;-74
2022/12/15 14:06:52;;;;;;;1.90;1.80;;;-1.60;98.20;;;;;;5047141;28;20519;-74
2022/12/15 14:09:27;;;;;;;3.00;2.80;;;-1.60;98.20;;;;;;5049075;28;21031;-74
2022/12/15 14:11:54;;;;;;;1.83;1.73;;;-1.60;98.20;;;;;;5049475;28;21080;-73
2022/12/15 14:14:27;;;;;;;2.43;2.23;;;-1.60;98.20;;;;;;5053012;28;20480;-76
2022/12/15 14:17:06;;;;;;;1.80;1.70;;;-1.60;98.20;;;;;;5053330;28;20565;-74
2022/12/15 14:19:39;;;;;;;1.90;1.80;;;-1.60;98.20;;;;;;5048113;28;20959;-73
2022/12/15 14:22:22;;;;;;;1.90;1.80;;;-1.60;98.20;;;;;;5049336;28;21053;-74
2022/12/15 14:24:51;;;;;;;2.53;2.33;;;-1.60;98.20;;;;;;5050310;28;20480;-72
2022/12/15 14:27:25;;;;;;;1.90;1.80;;;-1.70;98.20;;;;;;5053267;28;20565;-72
2022/12/15 14:30:19;;;;;;;2.20;2.00;;;-1.70;98.20;;;;;;5050841;28;20492;-73
2022/12/15 14:32:51;;;;;;;1.90;1.80;;;-1.70;98.20;;;;;;5050525;28;20565;-73
2022/12/15 14:35:24;;;;;;;4.37;4.17;;;-1.70;98.20;;;;;;5053580;28;20492;-73
2022/12/15 14:37:54;;;;;;;3.60;3.40;;;-1.70;98.20;;;;;;5047878;28;20878;-74
2022/12/15 14:40:22;;;;;;;1.90;1.80;;;-1.80;98.20;;;;;;5049695;28;20462;-73
2022/12/15 14:42:50;;;;;;;1.90;1.80;;;-1.80;98.20;;;;;;5051207;28;20967;-74
2022/12/15 14:45:23;;;;;;;1.80;1.70;;;-1.80;98.20;;;;;;5052038;28;20946;-75
2022/12/15 14:47:54;;;;;;;1.90;1.80;;;-1.80;98.20;;;;;;5054784;28;20473;-74
2022/12/15 14:50:23;;;;;;;1.80;1.70;;;-1.80;98.20;;;;;;5051885;28;20583;-73
2022/12/15 14:52:56;;;;;;;1.93;1.83;;;-1.80;98.20;;;;;;5055154;28;20559;-74
2022/12/15 14:55:31;;;;;;;2.13;1.93;;;-1.80;98.20;;;;;;5054729;28;20549;-74
2022/12/15 14:57:59;;;;;;;1.90;1.80;;;-1.90;98.20;;;;;;5051045;28;20548;-74
2022/12/15 15:00:28;;;;;;;1.90;1.80;;;-1.90;98.20;;;;;;5052223;28;20763;-73
2022/12/15 15:03:21;;;;;;;1.90;1.80;;;-1.90;98.20;;;;;;5054525;28;20519;-73
2022/12/15 15:05:53;;;;;;;2.20;2.00;;;-1.90;98.20;;;;;;5053297;28;20458;-76
2022/12/15 15:08:27;;;;;;;1.90;1.80;;;-2.00;98.20;;;;;;5052164;28;21238;-75
2022/12/15 15:10:55;;;;;;;1.90;1.80;;;-2.10;98.20;;;;;;5053888;28;20501;-74
2022/12/15 15:13:25;;;;;;;1.90;1.80;;;-2.10;98.20;;;;;;5056951;28;20477;-75
2022/12/15 15:15:54;;;;;;;2.03;1.93;;;-2.20;98.20;;;;;;5056495;28;20469;-75
2022/12/15 15:18:27;;;;;;;2.00;1.90;;;-2.20;98.20;;;;;;5052356;28;20491;-72
2022/12/15 15:20:57;;;;;;;1.90;1.80;;;-2.30;98.20;;;;;;5053809;28;20467;-73
2022/12/15 15:23:24;;;;;;;1.90;1.80;;;-2.30;98.20;;;;;;5054870;28;20576;-72
2022/12/15 15:25:53;;;;;;;1.90;1.80;;;-2.40;98.20;;;;;;5057381;28;20695;-75
2022/12/15 15:28:25;;;;;;;1.90;1.80;;;-2.40;98.20;;;;;;5056609;28;20472;-72
2022/12/15 15:30:54;;;;;;;2.07;1.97;;;-2.50;98.20;;;;;;5060892;28;20579;-73
2022/12/15 15:33:23;;;;;;;1.90;1.80;;;-2.50;98.20;;;;;;5059332;28;20558;-73
2022/12/15 15:35:52;;;;;;;1.90;1.80;;;-2.50;98.20;;;;;;5058248;28;20454;-73
2022/12/15 15:38:25;;;;;;;1.80;1.70;;;-2.60;98.20;;;;;;5061587;28;20468;-75
2022/12/15 15:40:54;;;;;;;1.90;1.80;;;-2.60;98.20;;;;;;5058715;28;20481;-75